Time;durP1;ratioP1;P1;durP2;ratioP2;P2;SDS_P1;SDS_P2;PMS_P1;PMS_P2;Temp;Humidity;BMP_temperature;BMP_pressure;BME280_temperature;BME280_humidity;BME280_pressure;Samples;Min_cycle;Max_cycle;Signal;HPM_P1;HPM_P2
2023/12/30 00:01:36;;;;;;;1.63;1.33;;;;;;;8.58;100.00;98017.69;5077505;28;20222;-80
2023/12/30 00:04:03;;;;;;;2.70;1.60;;;;;;;8.66;100.00;98025.13;5077594;28;20210;-80
2023/12/30 00:06:29;;;;;;;1.70;1.30;;;;;;;8.68;100.00;98021.44;5077502;28;20229;-80
2023/12/30 00:08:56;;;;;;;1.90;1.53;;;;;;;8.71;100.00;98008.09;5077480;28;20195;-80
2023/12/30 00:11:23;;;;;;;1.83;1.43;;;;;;;8.76;100.00;98010.44;5077437;28;20284;-80
2023/12/30 00:13:50;;;;;;;2.30;1.57;;;;;;;8.78;100.00;98014.66;5076745;28;20326;-80
2023/12/30 00:16:16;;;;;;;1.83;1.60;;;;;;;8.79;100.00;98007.59;5077372;28;20193;-80
2023/12/30 00:18:43;;;;;;;1.93;1.60;;;;;;;8.84;100.00;97998.47;5077459;28;20192;-80
2023/12/30 00:21:09;;;;;;;1.90;1.30;;;;;;;8.85;100.00;98005.41;5077513;28;20214;-80
2023/12/30 00:23:37;;;;;;;1.93;1.40;;;;;;;8.92;100.00;98005.84;5077059;28;20194;-80
2023/12/30 00:26:04;;;;;;;1.73;1.40;;;;;;;8.91;100.00;97999.75;5076737;28;20215;-81
2023/12/30 00:28:32;;;;;;;1.47;1.30;;;;;;;8.97;100.00;97996.72;5077471;28;20262;-80
2023/12/30 00:30:58;;;;;;;2.40;1.67;;;;;;;8.98;100.00;97990.50;5077376;28;20255;-80
2023/12/30 00:33:25;;;;;;;1.43;1.33;;;;;;;9.04;100.00;97999.78;5077241;28;20217;-80
2023/12/30 00:35:51;;;;;;;1.50;1.30;;;;;;;9.06;100.00;97992.66;5077279;28;20195;-81
2023/12/30 00:38:18;;;;;;;3.30;1.40;;;;;;;9.05;100.00;97980.41;5077397;28;20193;-80
2023/12/30 00:40:44;;;;;;;2.60;1.70;;;;;;;9.08;100.00;97990.75;5078992;28;20241;-80
2023/12/30 00:43:11;;;;;;;2.00;1.47;;;;;;;9.07;100.00;97989.06;5080887;28;20219;-80
2023/12/30 00:45:39;;;;;;;2.97;1.60;;;;;;;9.06;100.00;98003.19;5079326;28;20218;-80
2023/12/30 00:48:06;;;;;;;3.00;1.80;;;;;;;9.00;100.00;98003.59;5072210;28;20216;-81
2023/12/30 00:50:32;;;;;;;1.57;1.30;;;;;;;8.97;100.00;98009.91;5080408;28;20196;-81
2023/12/30 00:52:59;;;;;;;1.30;1.20;;;;;;;8.98;100.00;98010.72;5080438;28;20261;-80
2023/12/30 00:55:25;;;;;;;1.33;1.20;;;;;;;8.99;100.00;98017.72;5080478;28;20241;-80
2023/12/30 00:57:52;;;;;;;4.00;1.60;;;;;;;8.93;100.00;98018.13;5080598;28;20204;-80
2023/12/30 01:00:19;;;;;;;2.70;1.50;;;;;;;8.88;100.00;98026.28;5080442;28;20272;-80
2023/12/30 01:02:46;;;;;;;2.20;1.70;;;;;;;8.83;100.00;98044.22;5080167;28;20305;-80
2023/12/30 01:05:13;;;;;;;2.63;1.40;;;;;;;8.74;100.00;98038.66;5077228;28;20206;-80
2023/12/30 01:07:39;;;;;;;2.57;1.73;;;;;;;8.74;100.00;98043.91;5070447;28;20212;-80
2023/12/30 01:10:07;;;;;;;1.83;1.57;;;;;;;8.69;100.00;98041.59;5079708;28;20188;-80
2023/12/30 01:12:34;;;;;;;2.37;1.63;;;;;;;8.66;100.00;98040.94;5080270;28;20219;-80
2023/12/30 01:15:00;;;;;;;1.90;1.40;;;;;;;8.62;100.00;98050.00;5080260;28;20226;-80
2023/12/30 01:17:27;;;;;;;2.30;1.47;;;;;;;8.61;100.00;98053.53;5079956;28;20203;-79
2023/12/30 01:19:55;;;;;;;2.00;1.80;;;;;;;8.60;100.00;98062.38;5079791;28;20241;-80
2023/12/30 01:22:21;;;;;;;1.70;1.60;;;;;;;8.57;100.00;98070.50;5079898;28;20210;-80
2023/12/30 01:24:48;;;;;;;2.90;1.50;;;;;;;8.58;100.00;98070.38;5079789;28;20199;-80
2023/12/30 01:27:14;;;;;;;2.20;1.80;;;;;;;8.53;100.00;98072.47;5079549;28;20270;-80
2023/12/30 01:29:41;;;;;;;2.90;1.53;;;;;;;8.54;100.00;98070.66;5079710;28;20250;-79
2023/12/30 01:32:07;;;;;;;2.13;1.73;;;;;;;8.47;100.00;98078.13;5079439;28;20215;-81
2023/12/30 01:34:34;;;;;;;2.27;1.57;;;;;;;8.46;100.00;98091.38;5079564;28;20228;-80
2023/12/30 01:37:02;;;;;;;2.60;1.70;;;;;;;8.45;100.00;98090.53;5079258;28;20258;-80
2023/12/30 01:39:29;;;;;;;2.87;1.80;;;;;;;8.42;100.00;98090.72;5079572;28;20205;-80
2023/12/30 01:41:55;;;;;;;1.70;1.60;;;;;;;8.37;100.00;98087.53;5079413;28;20242;-79
2023/12/30 01:44:22;;;;;;;2.37;1.57;;;;;;;8.34;100.00;98097.41;5079387;28;20191;-80
2023/12/30 01:46:49;;;;;;;1.90;1.77;;;;;;;8.36;100.00;98096.38;5079241;28;20195;-80
2023/12/30 01:49:16;;;;;;;1.90;1.40;;;;;;;8.34;100.00;98103.50;5079177;28;20191;-79
2023/12/30 01:51:43;;;;;;;4.43;1.50;;;;;;;8.33;100.00;98106.25;5078515;28;20239;-80
2023/12/30 01:54:10;;;;;;;3.30;1.70;;;;;;;8.32;100.00;98102.75;5078862;28;20232;-79
2023/12/30 01:56:37;;;;;;;2.17;1.57;;;;;;;8.30;100.00;98098.50;5078948;28;20195;-81
2023/12/30 01:59:05;;;;;;;1.93;1.50;;;;;;;8.29;100.00;98099.44;5079035;28;20193;-79
2023/12/30 02:01:32;;;;;;;1.80;1.57;;;;;;;8.27;100.00;98106.59;5078720;28;20247;-79
2023/12/30 02:03:59;;;;;;;2.10;1.83;;;;;;;8.23;100.00;98113.00;5068592;28;20203;-80
2023/12/30 02:06:25;;;;;;;1.73;1.60;;;;;;;8.21;100.00;98114.88;5075979;28;20200;-79
2023/12/30 02:08:52;;;;;;;3.10;2.03;;;;;;;8.18;100.00;98109.75;5078517;28;20249;-79
2023/12/30 02:11:20;;;;;;;3.40;2.10;;;;;;;8.17;100.00;98108.06;5078463;28;20288;-81
2023/12/30 02:13:47;;;;;;;2.30;1.80;;;;;;;8.18;100.00;98117.66;5078400;28;20251;-79
2023/12/30 02:16:13;;;;;;;2.20;2.00;;;;;;;8.20;100.00;98126.34;5078208;28;20194;-80
2023/12/30 02:18:40;;;;;;;4.37;1.73;;;;;;;8.19;100.00;98119.31;5077989;28;20251;-79
2023/12/30 02:21:06;;;;;;;2.07;1.87;;;;;;;8.19;100.00;98119.31;5078209;28;20251;-79
2023/12/30 02:23:34;;;;;;;2.90;1.70;;;;;;;8.16;100.00;98124.78;5078201;28;20181;-79
2023/12/30 02:25:59;;;;;;;2.00;1.80;;;;;;;8.19;100.00;98129.84;5078026;28;20217;-79
2023/12/30 02:28:26;;;;;;;3.03;1.70;;;;;;;8.16;100.00;98128.28;5078063;28;20193;-79
2023/12/30 02:30:52;;;;;;;1.53;1.43;;;;;;;8.17;100.00;98131.75;5077767;28;20281;-79
2023/12/30 02:33:19;;;;;;;3.93;1.90;;;;;;;8.16;100.00;98130.06;5077910;28;20191;-79
2023/12/30 02:35:46;;;;;;;3.10;1.47;;;;;;;8.14;100.00;98137.22;5077914;28;20232;-79
2023/12/30 02:38:12;;;;;;;1.83;1.60;;;;;;;8.12;100.00;98134.66;5077937;28;20192;-79
2023/12/30 02:40:41;;;;;;;2.00;1.60;;;;;;;8.18;100.00;98138.69;5077952;28;20201;-80
2023/12/30 02:43:07;;;;;;;2.27;1.63;;;;;;;8.13;100.00;98136.34;5077792;28;20226;-80
2023/12/30 02:45:33;;;;;;;2.47;1.60;;;;;;;8.13;100.00;98136.34;5077426;28;20195;-80
2023/12/30 02:48:00;;;;;;;2.47;1.40;;;;;;;8.11;100.00;98126.84;5077736;28;20192;-80
2023/12/30 02:50:26;;;;;;;1.60;1.50;;;;;;;8.10;100.00;98135.69;5077798;28;20210;-80
2023/12/30 02:52:53;;;;;;;3.67;1.67;;;;;;;8.09;100.00;98134.00;5077599;28;20285;-80
2023/12/30 02:55:19;;;;;;;1.73;1.50;;;;;;;8.06;100.00;98142.06;5077685;28;20304;-80
2023/12/30 02:57:47;;;;;;;2.77;1.40;;;;;;;8.07;100.00;98146.38;5078430;28;20211;-80
2023/12/30 03:00:15;;;;;;;1.70;1.53;;;;;;;8.02;100.00;98148.47;5078462;28;20193;-80
2023/12/30 03:02:42;;;;;;;2.37;1.73;;;;;;;8.01;100.00;98152.00;5077416;28;20249;-80
2023/12/30 03:05:09;;;;;;;1.67;1.40;;;;;;;8.01;100.00;98167.78;5077266;28;20203;-80
2023/12/30 03:07:36;;;;;;;1.70;1.60;;;;;;;7.97;100.00;98163.66;5077407;28;20194;-80
2023/12/30 03:10:03;;;;;;;2.40;1.70;;;;;;;7.95;100.00;98162.91;5077261;28;20199;-80
2023/12/30 03:12:30;;;;;;;2.90;1.67;;;;;;;7.96;100.00;98168.06;5077122;28;20234;-80
2023/12/30 03:14:58;;;;;;;3.17;1.73;;;;;;;7.93;100.00;98168.28;5077134;28;20257;-80
2023/12/30 03:17:24;;;;;;;2.67;1.57;;;;;;;7.93;100.00;98159.50;5077027;28;20229;-79
2023/12/30 03:19:51;;;;;;;3.23;1.53;;;;;;;7.91;100.00;98164.03;5076850;28;20319;-80
2023/12/30 03:22:18;;;;;;;3.03;1.60;;;;;;;7.89;100.00;98168.53;5077142;28;20231;-80
2023/12/30 03:24:44;;;;;;;1.47;1.23;;;;;;;7.92;100.00;98168.34;5077056;28;20194;-80
2023/12/30 03:27:11;;;;;;;2.07;1.47;;;;;;;7.91;100.00;98166.66;5076814;28;20223;-80
2023/12/30 03:29:37;;;;;;;1.67;1.47;;;;;;;7.93;100.00;98172.66;5077133;28;20262;-80
2023/12/30 03:32:05;;;;;;;3.00;1.50;;;;;;;7.91;100.00;98171.91;5076956;28;20297;-80
2023/12/30 03:34:32;;;;;;;1.53;1.40;;;;;;;7.87;100.00;98173.03;5077068;28;20239;-80
2023/12/30 03:36:58;;;;;;;2.23;1.60;;;;;;;7.88;100.00;98177.34;5076806;28;20197;-80
2023/12/30 03:39:25;;;;;;;1.43;1.23;;;;;;;7.90;100.00;98170.22;5076795;28;20217;-80
2023/12/30 03:41:51;;;;;;;1.53;1.33;;;;;;;7.91;100.00;98175.38;5076631;28;20295;-80
2023/12/30 03:44:18;;;;;;;2.20;1.23;;;;;;;7.92;100.00;98178.88;5076889;28;20259;-80
2023/12/30 03:46:44;;;;;;;2.17;1.23;;;;;;;7.93;100.00;98172.66;5076664;28;20194;-79
2023/12/30 03:49:12;;;;;;;1.20;1.10;;;;;;;7.89;100.00;98168.53;5076618;28;20193;-81
2023/12/30 03:51:39;;;;;;;1.30;1.20;;;;;;;7.90;100.00;98168.44;5076754;28;20222;-80
2023/12/30 03:54:05;;;;;;;1.83;1.40;;;;;;;7.88;100.00;98167.69;5075815;28;20231;-80
2023/12/30 03:56:32;;;;;;;1.43;1.20;;;;;;;7.84;100.00;98160.06;5076721;28;20352;-80
2023/12/30 03:58:59;;;;;;;1.33;1.20;;;;;;;7.83;100.00;98163.63;5076945;28;20189;-80
2023/12/30 04:01:26;;;;;;;1.30;1.10;;;;;;;7.82;100.00;98160.13;5076746;28;20224;-80
2023/12/30 04:03:52;;;;;;;1.20;1.10;;;;;;;7.82;100.00;98170.66;5076880;28;20210;-80
2023/12/30 04:06:21;;;;;;;3.43;1.57;;;;;;;7.79;100.00;98167.38;5076664;28;20199;-81
2023/12/30 04:08:47;;;;;;;1.93;1.20;;;;;;;7.78;100.00;98161.25;5076728;28;20261;-80
2023/12/30 04:11:14;;;;;;;4.00;1.40;;;;;;;7.78;100.00;98153.34;5074909;28;20222;-80
2023/12/30 04:13:40;;;;;;;1.33;1.20;;;;;;;7.79;100.00;98162.94;5076598;28;20268;-80
2023/12/30 04:16:07;;;;;;;4.10;1.33;;;;;;;7.82;100.00;98167.16;5078712;28;20225;-80
2023/12/30 04:18:34;;;;;;;1.60;1.30;;;;;;;7.82;100.00;98167.16;5080366;28;20193;-80
2023/12/30 04:21:00;;;;;;;1.67;1.30;;;;;;;7.81;100.00;98176.88;5080216;28;20207;-80
2023/12/30 04:23:28;;;;;;;1.53;1.40;;;;;;;7.80;100.00;98175.19;5075862;28;20202;-79
2023/12/30 04:25:55;;;;;;;1.70;1.30;;;;;;;7.73;100.00;98162.44;5079577;28;20209;-79
2023/12/30 04:28:21;;;;;;;1.60;1.30;;;;;;;7.66;100.00;98171.63;5080239;28;20196;-79
2023/12/30 04:30:48;;;;;;;3.23;1.63;;;;;;;7.63;100.00;98177.06;5080110;28;20210;-79
2023/12/30 04:33:14;;;;;;;2.30;1.20;;;;;;;7.64;100.00;98184.88;5079517;28;20193;-79
2023/12/30 04:35:41;;;;;;;1.80;1.43;;;;;;;7.65;100.00;98191.00;5079842;28;20230;-79
2023/12/30 04:38:08;;;;;;;2.00;1.40;;;;;;;7.67;100.00;98189.97;5079910;28;20340;-79
2023/12/30 04:40:35;;;;;;;4.77;1.30;;;;;;;7.66;100.00;98187.41;5079905;28;20182;-79
2023/12/30 04:43:02;;;;;;;1.90;1.50;;;;;;;7.62;100.00;98191.16;5079829;28;20213;-81
2023/12/30 04:45:28;;;;;;;3.83;1.60;;;;;;;7.63;100.00;98187.56;5079798;28;20186;-80
2023/12/30 04:47:55;;;;;;;1.93;1.63;;;;;;;7.62;100.00;98176.22;5079571;28;20203;-80
2023/12/30 04:50:23;;;;;;;1.97;1.77;;;;;;;7.58;100.00;98189.59;5079997;28;20189;-80
2023/12/30 04:52:49;;;;;;;3.40;1.77;;;;;;;7.56;100.00;98181.81;5079803;28;20248;-80
2023/12/30 04:55:15;;;;;;;2.13;1.53;;;;;;;7.55;100.00;98185.41;5079444;28;20217;-79
2023/12/30 04:57:47;;;;;;;2.50;1.70;;;;;;;7.61;100.00;98192.09;5079654;28;20199;-79
2023/12/30 05:00:15;;;;;;;1.73;1.50;;;;;;;7.62;100.00;98191.16;5079520;28;20204;-79
2023/12/30 05:02:41;;;;;;;2.83;2.13;;;;;;;7.60;100.00;98193.84;5079404;28;20231;-80
2023/12/30 05:05:09;;;;;;;3.03;1.90;;;;;;;7.56;100.00;98191.50;5079251;28;20193;-79
2023/12/30 05:07:35;;;;;;;1.67;1.40;;;;;;;7.57;100.00;98185.28;5078765;28;20201;-79
2023/12/30 05:10:02;;;;;;;2.83;1.80;;;;;;;7.58;100.00;98184.34;5079222;28;20209;-79
2023/12/30 05:12:29;;;;;;;1.87;1.47;;;;;;;7.54;100.00;98177.59;5079298;28;20209;-79
2023/12/30 05:14:56;;;;;;;2.07;1.73;;;;;;;7.52;100.00;98174.19;5079115;28;20222;-79
2023/12/30 05:17:23;;;;;;;3.20;1.63;;;;;;;7.54;100.00;98172.34;5079053;28;20211;-79
2023/12/30 05:19:50;;;;;;;2.30;1.37;;;;;;;7.56;100.00;98175.72;5078090;28;20215;-79
2023/12/30 05:22:16;;;;;;;2.20;1.67;;;;;;;7.56;100.00;98176.56;5073674;28;20240;-80
2023/12/30 05:24:43;;;;;;;2.10;1.40;;;;;;;7.60;100.00;98182.50;5078175;28;20233;-79
2023/12/30 05:27:10;;;;;;;1.33;1.23;;;;;;;7.59;100.00;98170.28;5077432;28;20193;-80
2023/12/30 05:29:37;;;;;;;3.50;1.67;;;;;;;7.56;100.00;98171.31;5078891;28;20261;-79
2023/12/30 05:32:05;;;;;;;1.73;1.63;;;;;;;7.55;100.00;98172.25;5078136;28;20206;-80
2023/12/30 05:34:31;;;;;;;4.33;1.67;;;;;;;7.59;100.00;98170.28;5078801;28;20214;-80
2023/12/30 05:36:58;;;;;;;1.50;1.33;;;;;;;7.53;100.00;98170.63;5078585;28;20216;-79
2023/12/30 05:39:24;;;;;;;1.33;0.93;;;;;;;7.48;100.00;98170.88;5078685;28;20194;-79
2023/12/30 05:41:51;;;;;;;3.50;1.30;;;;;;;7.42;100.00;98167.75;5077953;28;20290;-79
2023/12/30 05:44:17;;;;;;;1.37;1.00;;;;;;;7.42;100.00;98173.00;5073403;28;20211;-80
2023/12/30 05:46:44;;;;;;;1.20;1.10;;;;;;;7.45;100.00;98173.69;5063487;28;20224;-79
2023/12/30 05:49:11;;;;;;;2.27;1.30;;;;;;;7.42;100.00;98173.84;5063860;28;20212;-79
2023/12/30 05:51:41;;;;;;;1.70;1.60;;;;;;;7.41;100.00;98172.16;5063070;28;20244;-79
2023/12/30 05:54:09;;;;;;;1.27;0.97;;;;;;;7.38;100.00;98175.91;5063715;28;20209;-79
2023/12/30 05:56:36;;;;;;;2.00;1.17;;;;;;;7.34;100.00;98173.44;5062864;28;20235;-79
2023/12/30 05:59:03;;;;;;;3.23;1.03;;;;;;;7.31;100.00;98175.38;5063561;28;20209;-79
2023/12/30 06:01:29;;;;;;;3.27;1.20;;;;;;;7.29;100.00;98183.34;5062866;28;20246;-79
2023/12/30 06:03:58;;;;;;;1.47;1.10;;;;;;;7.34;100.00;98191.00;5063773;28;20221;-79
2023/12/30 06:06:26;;;;;;;1.67;1.10;;;;;;;7.41;100.00;98187.09;5063391;28;20577;-79
2023/12/30 06:08:52;;;;;;;1.10;1.00;;;;;;;7.44;100.00;98192.19;5063345;28;20260;-79
2023/12/30 06:11:19;;;;;;;1.17;1.07;;;;;;;7.49;100.00;98190.16;5063009;28;20248;-79
2023/12/30 06:13:46;;;;;;;1.40;1.10;;;;;;;7.53;100.00;98199.56;5063247;28;20227;-79
2023/12/30 06:16:12;;;;;;;2.50;1.13;;;;;;;7.52;100.00;98189.94;5062885;28;20234;-79
2023/12/30 06:18:39;;;;;;;1.37;0.90;;;;;;;7.56;100.00;98199.38;5062860;28;20667;-79
2023/12/30 06:21:06;;;;;;;1.10;1.00;;;;;;;7.58;100.00;98184.34;5063532;28;20321;-80
2023/12/30 06:23:33;;;;;;;1.37;0.90;;;;;;;7.63;100.00;98198.09;5062527;28;20327;-79
2023/12/30 06:26:01;;;;;;;1.33;0.97;;;;;;;7.66;100.00;98193.50;5062122;28;20559;-81
2023/12/30 06:28:28;;;;;;;1.73;1.00;;;;;;;7.69;100.00;98201.25;5062126;28;20232;-79
2023/12/30 06:30:56;;;;;;;2.60;0.90;;;;;;;7.70;100.00;98199.44;5062348;28;20218;-79
2023/12/30 06:33:24;;;;;;;1.10;0.90;;;;;;;7.68;100.00;98201.31;5062247;28;20690;-79
2023/12/30 06:35:51;;;;;;;1.50;1.07;;;;;;;7.69;100.00;98200.38;5062621;28;20627;-80
2023/12/30 06:38:18;;;;;;;1.37;0.80;;;;;;;7.70;100.00;98207.34;5062296;28;20208;-79
2023/12/30 06:40:46;;;;;;;1.17;0.70;;;;;;;7.73;100.00;98209.81;5062539;28;20211;-79
2023/12/30 06:43:12;;;;;;;1.30;0.90;;;;;;;7.70;100.00;98209.97;5062889;28;20205;-79
2023/12/30 06:45:39;;;;;;;1.63;1.27;;;;;;;7.70;100.00;98215.22;5062445;28;20663;-79
2023/12/30 06:48:06;;;;;;;1.00;0.90;;;;;;;7.77;100.00;98224.50;5062244;28;20214;-79
2023/12/30 06:50:33;;;;;;;1.37;1.10;;;;;;;7.76;100.00;98214.88;5062973;28;20209;-79
2023/12/30 06:52:59;;;;;;;1.10;1.00;;;;;;;7.74;100.00;98224.66;5062669;28;20233;-79
2023/12/30 06:55:26;;;;;;;1.30;1.00;;;;;;;7.73;100.00;98229.06;5062448;28;20325;-79
2023/12/30 06:57:54;;;;;;;1.47;0.90;;;;;;;7.72;100.00;98234.41;5062692;28;20214;-81
2023/12/30 07:00:21;;;;;;;0.90;0.90;;;;;;;7.73;100.00;98230.84;5061534;28;20206;-79
2023/12/30 07:02:47;;;;;;;0.80;0.70;;;;;;;7.71;100.00;98238.00;5062525;28;20251;-79
2023/12/30 07:05:14;;;;;;;0.80;0.70;;;;;;;7.73;100.00;98236.94;5062464;28;20211;-79
2023/12/30 07:07:40;;;;;;;1.80;1.00;;;;;;;7.74;100.00;98235.19;5063062;28;20214;-81
2023/12/30 07:10:07;;;;;;;1.33;0.93;;;;;;;7.72;100.00;98239.69;5062592;28;20235;-79
2023/12/30 07:12:34;;;;;;;2.97;0.80;;;;;;;7.80;100.00;98238.31;5062953;28;20236;-79
2023/12/30 07:15:02;;;;;;;1.60;1.13;;;;;;;7.75;100.00;98231.59;5061566;28;20213;-79
2023/12/30 07:17:29;;;;;;;1.77;1.10;;;;;;;7.67;100.00;98232.06;5060455;28;20233;-79
2023/12/30 07:19:56;;;;;;;1.30;1.00;;;;;;;7.63;100.00;98237.56;5062705;28;20573;-78
2023/12/30 07:22:23;;;;;;;1.23;0.90;;;;;;;7.62;100.00;98230.59;5061218;28;20254;-79
2023/12/30 07:24:49;;;;;;;0.97;0.87;;;;;;;7.63;100.00;98229.66;5061416;28;20214;-79
2023/12/30 07:27:16;;;;;;;1.27;0.80;;;;;;;7.69;100.00;98231.94;5062471;28;20211;-81
2023/12/30 07:29:42;;;;;;;1.10;0.70;;;;;;;7.76;100.00;98233.28;5062345;28;20676;-80
2023/12/30 07:32:10;;;;;;;1.10;1.00;;;;;;;7.82;100.00;98235.56;5061912;28;20236;-80
2023/12/30 07:34:37;;;;;;;0.93;0.80;;;;;;;7.82;100.00;98238.22;5062425;28;20215;-80
2023/12/30 07:37:04;;;;;;;2.30;1.10;;;;;;;7.87;100.00;98241.44;5060955;28;20236;-82
2023/12/30 07:39:32;;;;;;;1.10;1.00;;;;;;;7.85;100.00;98241.50;5062821;28;20254;-80
2023/12/30 07:41:59;;;;;;;1.83;1.33;;;;;;;7.91;100.00;98248.22;5061896;28;20229;-80
2023/12/30 07:44:26;;;;;;;2.00;0.90;;;;;;;7.96;100.00;98246.19;5062347;28;20236;-79
2023/12/30 07:46:52;;;;;;;1.80;1.10;;;;;;;7.98;100.00;98253.06;5061813;28;20293;-80
2023/12/30 07:49:20;;;;;;;1.27;1.10;;;;;;;8.04;100.00;98257.13;5061742;28;20208;-80
2023/12/30 07:51:46;;;;;;;1.40;1.30;;;;;;;8.06;100.00;98263.13;5065388;28;20235;-80
2023/12/30 07:54:13;;;;;;;1.93;1.60;;;;;;;8.07;100.00;98263.06;5065392;28;20586;-80
2023/12/30 07:56:40;;;;;;;1.23;1.10;;;;;;;8.14;100.00;98258.31;5065680;28;20229;-80
2023/12/30 07:59:06;;;;;;;1.30;1.10;;;;;;;8.14;100.00;98255.66;5065438;28;20212;-80
2023/12/30 08:01:33;;;;;;;1.40;1.00;;;;;;;8.10;100.00;98269.94;5065997;28;20606;-80
2023/12/30 08:04:00;;;;;;;2.40;1.30;;;;;;;8.08;100.00;98269.19;5066098;28;20220;-80
2023/12/30 08:06:28;;;;;;;1.50;1.10;;;;;;;8.13;100.00;98269.75;5066204;28;20279;-80
2023/12/30 08:08:54;;;;;;;1.37;1.27;;;;;;;8.17;100.00;98255.47;5067110;28;20217;-80
2023/12/30 08:11:21;;;;;;;1.50;1.20;;;;;;;8.21;100.00;98270.19;5066752;28;20226;-80
2023/12/30 08:13:47;;;;;;;1.27;1.17;;;;;;;8.23;100.00;98258.66;5066642;28;20219;-80
2023/12/30 08:16:14;;;;;;;2.40;1.27;;;;;;;8.29;100.00;98266.19;5065562;28;20234;-80
2023/12/30 08:18:41;;;;;;;2.17;1.10;;;;;;;8.30;100.00;98262.63;5065959;28;20212;-80
2023/12/30 08:21:07;;;;;;;1.53;1.13;;;;;;;8.37;100.00;98258.69;5065265;28;20240;-79
2023/12/30 08:23:35;;;;;;;1.93;1.27;;;;;;;8.38;100.00;98265.66;5064500;28;20209;-80
2023/12/30 08:26:01;;;;;;;2.10;1.20;;;;;;;8.43;100.00;98271.50;5062547;28;20216;-79
2023/12/30 08:28:28;;;;;;;3.13;1.67;;;;;;;8.45;100.00;98274.06;5062850;28;20695;-79
2023/12/30 08:30:56;;;;;;;2.47;1.30;;;;;;;8.49;100.00;98272.91;5061749;28;20209;-79
2023/12/30 08:33:23;;;;;;;2.63;1.33;;;;;;;8.49;100.00;98275.53;5062764;28;20303;-79
2023/12/30 08:35:49;;;;;;;1.50;1.40;;;;;;;8.47;100.00;98280.06;5063126;28;20226;-80
2023/12/30 08:38:16;;;;;;;2.77;1.37;;;;;;;8.46;100.00;98281.00;5064098;28;20213;-80
2023/12/30 08:40:44;;;;;;;1.80;1.20;;;;;;;8.48;100.00;98289.66;5059552;28;20250;-82
2023/12/30 08:43:11;;;;;;;2.80;1.30;;;;;;;8.46;100.00;98283.66;5061287;28;20226;-79
2023/12/30 08:45:38;;;;;;;1.33;1.20;;;;;;;8.49;100.00;98284.31;5062615;28;20214;-80
2023/12/30 08:48:06;;;;;;;3.17;1.20;;;;;;;8.54;100.00;98284.03;5061544;28;20211;-77
2023/12/30 08:50:33;;;;;;;2.50;1.20;;;;;;;8.58;100.00;98285.56;5061351;28;20236;-80
2023/12/30 08:52:59;;;;;;;1.50;1.07;;;;;;;8.63;100.00;98289.59;5063076;28;20227;-79
2023/12/30 08:55:26;;;;;;;1.33;0.90;;;;;;;8.65;100.00;98292.16;5062251;28;20217;-80
2023/12/30 08:57:53;;;;;;;2.27;1.00;;;;;;;8.71;100.00;98291.81;5061657;28;20230;-79
2023/12/30 09:00:20;;;;;;;1.00;0.90;;;;;;;8.76;100.00;98289.75;5061955;28;20221;-80
2023/12/30 09:02:48;;;;;;;0.80;0.80;;;;;;;8.81;100.00;98292.97;5061630;28;20326;-80
2023/12/30 09:05:44;;;;;;;0.90;0.90;;;;;;;8.85;100.00;98294.44;5061404;28;20768;-80
2023/12/30 09:08:11;;;;;;;1.40;0.90;;;;;;;8.93;100.00;98294.88;5058279;28;20581;-80
2023/12/30 09:10:39;;;;;;;1.17;0.93;;;;;;;8.93;100.00;98298.34;5078993;28;20237;-79
2023/12/30 09:13:10;;;;;;;1.67;0.77;;;;;;;8.97;100.00;98293.72;5083678;28;20237;-82
2023/12/30 09:15:37;;;;;;;1.47;1.10;;;;;;;8.89;100.00;98295.97;5079885;28;20202;-81
2023/12/30 09:18:04;;;;;;;2.07;1.07;;;;;;;9.02;100.00;98291.66;5077229;28;20232;-77
2023/12/30 09:20:31;;;;;;;0.77;0.70;;;;;;;9.06;100.00;98301.09;5079392;28;20217;-81
2023/12/30 09:22:57;;;;;;;2.00;0.83;;;;;;;9.01;100.00;98287.34;5084205;28;20242;-79
2023/12/30 09:25:26;;;;;;;1.10;1.00;;;;;;;8.94;100.00;98291.28;5083833;28;20316;-81
2023/12/30 09:27:53;;;;;;;1.23;1.13;;;;;;;8.91;100.00;98286.19;5085572;28;20210;-79
2023/12/30 09:30:20;;;;;;;1.30;1.20;;;;;;;8.99;100.00;98292.69;5085330;28;20430;-81
2023/12/30 09:32:47;;;;;;;1.03;0.90;;;;;;;9.02;100.00;98289.03;5067005;28;20239;-81
2023/12/30 09:35:14;;;;;;;1.93;1.30;;;;;;;9.06;100.00;98291.38;5068203;28;20216;-82
2023/12/30 09:37:41;;;;;;;1.50;1.10;;;;;;;9.12;100.00;98292.81;5067850;28;20228;-80
2023/12/30 09:40:09;;;;;;;1.60;0.90;;;;;;;9.20;100.00;98296.69;5068087;28;20208;-81
2023/12/30 09:42:37;;;;;;;1.93;1.00;;;;;;;9.20;100.00;98301.09;5065498;28;20243;-77
2023/12/30 09:45:04;;;;;;;1.23;1.07;;;;;;;9.19;100.00;98294.97;5055855;28;20246;-78
2023/12/30 09:47:33;;;;;;;1.07;0.93;;;;;;;9.11;100.00;98306.94;5065375;28;20204;-80
2023/12/30 09:50:00;;;;;;;1.47;0.90;;;;;;;9.01;100.00;98305.78;5064716;28;20215;-80
2023/12/30 09:52:26;;;;;;;0.93;0.90;;;;;;;8.89;100.00;98301.25;5065878;28;20231;-80
2023/12/30 09:54:53;;;;;;;1.00;0.90;;;;;;;8.80;100.00;98301.78;5065047;28;20210;-80
2023/12/30 09:57:23;;;;;;;1.63;0.87;;;;;;;8.80;100.00;98307.06;5064680;28;20712;-80
2023/12/30 09:59:51;;;;;;;2.57;1.00;;;;;;;8.79;100.00;98300.94;5063310;28;20897;-80
2023/12/30 10:02:17;;;;;;;1.07;0.97;;;;;;;8.87;100.00;98301.34;5062808;28;20732;-80
2023/12/30 10:04:45;;;;;;;0.87;0.80;;;;;;;8.89;100.00;98302.09;5064037;28;20218;-80
2023/12/30 10:07:12;;;;;;;0.90;0.80;;;;;;;8.93;100.00;98308.88;5064058;28;20207;-80
2023/12/30 10:09:39;;;;;;;1.00;0.80;;;;;;;8.99;100.00;98297.97;5064752;28;20244;-80
2023/12/30 10:12:07;;;;;;;1.07;0.80;;;;;;;9.02;100.00;98295.16;5064863;28;20237;-80
2023/12/30 10:14:33;;;;;;;0.80;0.70;;;;;;;9.09;100.00;98292.97;5064549;28;20218;-80
2023/12/30 10:17:02;;;;;;;1.20;0.80;;;;;;;9.14;100.00;98301.47;5063689;28;20224;-80
2023/12/30 10:19:29;;;;;;;0.90;0.70;;;;;;;9.18;100.00;98298.53;5065616;28;20221;-81
2023/12/30 10:21:57;;;;;;;1.33;0.60;;;;;;;9.25;100.00;98283.22;5065224;28;20228;-80
2023/12/30 10:24:23;;;;;;;0.77;0.60;;;;;;;9.21;100.00;98281.69;5067053;28;20211;-82
2023/12/30 10:26:50;;;;;;;2.47;0.70;;;;;;;9.41;100.00;98286.56;5061122;28;20217;-81
2023/12/30 10:29:17;;;;;;;2.00;0.60;;;;;;;9.35;100.00;98269.34;5063382;28;20222;-79
2023/12/30 10:31:44;;;;;;;0.60;0.60;;;;;;;9.37;100.00;98271.91;5064609;28;20637;-80
2023/12/30 10:34:10;;;;;;;1.70;0.57;;;;;;;9.32;100.00;98273.97;5065935;28;20211;-79
2023/12/30 10:36:38;;;;;;;2.67;0.67;;;;;;;9.32;100.00;98273.97;5059619;28;20232;-77
2023/12/30 10:39:07;;;;;;;3.43;0.93;;;;;;;9.36;100.00;98259.66;5052802;28;20221;-76
2023/12/30 10:41:34;;;;;;;0.90;0.60;;;;;;;9.36;100.00;98244.66;5052304;28;20577;-75
2023/12/30 10:44:00;;;;;;;1.30;0.63;;;;;;;9.36;100.00;98238.56;5052251;28;20211;-75
2023/12/30 10:46:28;;;;;;;0.87;0.70;;;;;;;9.31;100.00;98246.72;5051817;28;20725;-76
2023/12/30 10:48:58;;;;;;;0.93;0.70;;;;;;;9.38;100.00;98244.56;5055311;28;20210;-79
2023/12/30 10:51:26;;;;;;;0.60;0.60;;;;;;;9.37;100.00;98234.97;5062474;28;20227;-79
2023/12/30 10:54:04;;;;;;;1.43;0.60;;;;;;;9.43;100.00;98229.31;5065553;28;20263;-80
2023/12/30 10:56:39;;;;;;;1.00;0.50;;;;;;;9.39;100.00;98222.53;5066464;28;20210;-79
2023/12/30 10:59:08;;;;;;;1.63;0.80;;;;;;;9.47;100.00;98230.78;5066789;28;20302;-81
2023/12/30 11:01:36;;;;;;;0.70;0.70;;;;;;;9.49;96.52;98205.19;5065229;28;20240;-81
2023/12/30 11:04:11;;;;;;;1.33;0.90;;;;;;;9.53;98.29;98219.84;5060666;28;20241;-80
2023/12/30 11:06:44;;;;;;;1.27;0.50;;;;;;;9.59;94.09;98198.34;5056359;28;20198;-79
2023/12/30 11:09:13;;;;;;;1.93;0.60;;;;;;;9.64;94.07;98197.13;5052823;28;20215;-77
2023/12/30 11:11:53;;;;;;;1.10;0.60;;;;;;;9.66;93.30;98199.69;5067425;28;20327;-77
2023/12/30 11:14:20;;;;;;;1.75;0.60;;;;;;;9.67;89.84;98170.53;5065590;28;20447;-77
2023/12/30 11:16:50;;;;;;;1.73;0.60;;;;;;;9.75;89.17;98191.16;5063388;28;20238;-78
2023/12/30 11:19:26;;;;;;;2.87;0.80;;;;;;;9.84;89.08;98183.47;5064032;28;20207;-78
2023/12/30 11:21:54;;;;;;;1.63;0.47;;;;;;;9.87;86.34;98167.44;5065312;28;20726;-78
2023/12/30 11:24:22;;;;;;;0.80;0.50;;;;;;;9.84;87.42;98187.94;5063797;28;20220;-78
2023/12/30 11:26:53;;;;;;;0.80;0.60;;;;;;;9.85;86.45;98189.63;5064115;28;20218;-78
2023/12/30 11:29:24;;;;;;;1.97;0.60;;;;;;;9.82;87.88;98185.38;5064794;28;20230;-78
2023/12/30 11:31:52;;;;;;;0.50;0.50;;;;;;;9.95;86.43;98177.50;5063667;28;20448;-78
2023/12/30 11:34:19;;;;;;;0.50;0.50;;;;;;;9.94;87.41;98194.28;5084478;28;20203;-78